Impacts TAF Board INFO
FOR SITUATIONAL AWARENESS. NOT TO BE USED FOR FLIGHT PLANNING PURPOSES.
IDs:

KSTL - St Louis/Lambert Int, MO, US

Issued at 2320 UTC 25 Apr 2017
Updated at 0208 UTC 26 Apr 2017
Potential Impact None Slight Moderate High
Time0151Z 26/03Z 26/04Z 26/05Z 26/06Z 26/07Z 26/08Z 26/09Z 26/10Z 26/11Z 26/12Z 26/13Z 26/14Z 26/15Z>>
Type OBS PRVL PRVL PRVL PRVL PRVL PRVL PRVL PRVL PRVL PRVL PRVL PRVL PRVL
VIS 10 >6 >6 >6 >6 >6 >6 >6 >6 >6 >6 >6 >6 >6
CIG 200 -- -- -- -- -- -- -- 100 100 100 100 25 25
Cover BKN SCT SCT SCT SCT SCT SCT SCT BKN BKN BKN BKN OVC OVC
FltCat VFR VFR VFR VFR VFR VFR VFR VFR VFR VFR VFR VFR MVFR MVFR
WX -- -- -- -- -- -- -- -- VCSH VCSH VCSH VCSH -- --
WDir 170 170 170 170 170 170 170 170 170 170 170 170 190 190
WSpd 11 11 11 11 11 11 11 11 7 7 7 7 9 9
WGst -- -- -- -- -- -- -- -- -- -- -- -- -- --

Raw TAF
KSTL 252320Z 2600/2706 16015G25KT P6SM SCT250
  FM260100 17011KT P6SM SCT250
  FM261000 17007KT P6SM VCSH BKN100
  FM261400 19009KT P6SM OVC025
  FM261900 19012KT P6SM VCTS OVC030CB
  FM270000 27010KT P6SM OVC030


Raw METAR
KSTL 260151Z 17011KT 10SM SCT150 BKN200 24/09 A2952 RMK AO2 SLP988 T02440094
KSTL 260051Z 17011KT 10SM SCT150 BKN200 25/09 A2950 RMK AO2 SLP983 T02500089
KSTL 252351Z 17017G21KT 10SM FEW055 FEW150 BKN200 26/09 A2948 RMK AO2 SLP975 T02610089 10278 20250 55001

METAR Board
Radar Display
Forecast Discussion

FOR SITUATIONAL AWARENESS. NOT TO BE USED FOR FLIGHT PLANNING PURPOSES.

Page loaded:  02:08 UTC  |   07:08 PM Pacific  |   08:08 PM Mountain  |   09:08 PM Central  |   10:08 PM Eastern

 

ADVISORIES

FORECASTS

FORECASTS

OBSERVATIONS

USER TOOLS

ABOUT US